createdAt,value
2023-03-06T00:00:49.783Z,2.32
2023-03-06T00:03:16.377Z,2.22
2023-03-06T00:05:42.860Z,2.21
2023-03-06T00:08:09.335Z,2.22
2023-03-06T00:10:35.823Z,2.22
2023-03-06T00:13:05.222Z,2.22
2023-03-06T00:15:31.741Z,2.19
2023-03-06T00:17:58.299Z,2.18
2023-03-06T00:20:25.856Z,2.13
2023-03-06T00:22:52.165Z,2.22
2023-03-06T00:25:21.114Z,2.17
2023-03-06T00:27:47.996Z,2.09
2023-03-06T00:30:17.862Z,2.06
2023-03-06T00:32:44.492Z,1.94
2023-03-06T00:35:12.003Z,1.89
2023-03-06T00:37:38.562Z,1.85
2023-03-06T00:40:06.491Z,1.83
2023-03-06T00:42:32.952Z,1.78
2023-03-06T00:44:59.249Z,1.78
2023-03-06T00:47:25.567Z,1.72
2023-03-06T00:49:51.889Z,1.64
2023-03-06T00:52:18.203Z,1.64
2023-03-06T00:54:44.554Z,1.64
2023-03-06T00:57:10.897Z,1.64
2023-03-06T00:59:37.261Z,1.68
2023-03-06T01:02:04.154Z,1.78
2023-03-06T01:04:31.073Z,1.69
2023-03-06T01:06:57.437Z,1.68
2023-03-06T01:09:24.341Z,1.72
2023-03-06T01:11:50.780Z,1.66
2023-03-06T01:14:17.182Z,1.76
2023-03-06T01:16:43.564Z,1.67
2023-03-06T01:19:10.058Z,1.76
2023-03-06T01:21:36.396Z,1.70
2023-03-06T01:24:02.732Z,1.77
2023-03-06T01:26:29.183Z,1.78
2023-03-06T01:28:55.543Z,1.70
2023-03-06T01:31:21.890Z,1.75
2023-03-06T01:33:48.231Z,1.75
2023-03-06T01:36:14.550Z,1.76
2023-03-06T01:38:40.888Z,1.79
2023-03-06T01:41:07.731Z,1.75
2023-03-06T01:43:36.972Z,1.85
2023-03-06T01:46:34.082Z,1.78
2023-03-06T01:49:37.661Z,1.66
2023-03-06T01:52:09.135Z,1.68
2023-03-06T01:54:56.861Z,1.73
2023-03-06T01:57:30.382Z,1.80
2023-03-06T02:00:08.376Z,1.77
2023-03-06T02:02:35.986Z,1.83
2023-03-06T02:05:05.117Z,1.69
2023-03-06T02:07:31.921Z,1.74
2023-03-06T02:09:58.540Z,1.78
2023-03-06T02:12:26.167Z,1.80
2023-03-06T02:14:52.670Z,1.62
2023-03-06T02:17:21.825Z,1.55
2023-03-06T02:20:07.426Z,1.58
2023-03-06T02:22:52.331Z,1.60
2023-03-06T02:25:31.437Z,1.54
2023-03-06T02:27:57.797Z,1.61
2023-03-06T02:30:26.489Z,1.70
2023-03-06T02:32:52.794Z,1.60
2023-03-06T02:35:23.452Z,1.62
2023-03-06T02:37:49.905Z,1.66
2023-03-06T02:40:18.576Z,1.65
2023-03-06T02:42:47.430Z,1.56
2023-03-06T02:45:17.463Z,1.47
2023-03-06T02:47:43.776Z,1.50
2023-03-06T02:50:10.701Z,1.41
2023-03-06T02:52:37.017Z,1.39
2023-03-06T02:55:03.805Z,1.33
2023-03-06T02:57:30.105Z,1.22
2023-03-06T02:59:56.482Z,1.12
2023-03-06T03:02:22.807Z,1.19
2023-03-06T03:04:49.150Z,1.22
2023-03-06T03:07:15.481Z,1.22
2023-03-06T03:09:41.919Z,1.10
2023-03-06T03:12:08.533Z,1.16
2023-03-06T03:14:34.940Z,1.15
2023-03-06T03:17:01.305Z,1.07
2023-03-06T03:19:27.817Z,1.12
2023-03-06T03:21:54.180Z,1.12
2023-03-06T03:24:20.507Z,1.06
2023-03-06T03:26:46.868Z,1.04
2023-03-06T03:29:13.254Z,1.08
2023-03-06T03:31:39.559Z,1.21
2023-03-06T03:34:05.957Z,1.24
2023-03-06T03:36:32.283Z,1.12
2023-03-06T03:38:58.577Z,1.09
2023-03-06T03:41:24.901Z,1.06
2023-03-06T03:43:51.220Z,1.00
2023-03-06T03:46:17.866Z,0.89
2023-03-06T03:48:44.172Z,0.92
2023-03-06T03:51:13.086Z,0.93
2023-03-06T03:53:39.645Z,0.83
2023-03-06T03:56:06.209Z,0.85
2023-03-06T03:58:32.517Z,0.74
2023-03-06T04:00:58.962Z,0.60
2023-03-06T04:03:25.333Z,0.47
2023-03-06T04:05:51.773Z,0.58
2023-03-06T04:08:18.089Z,0.61
2023-03-06T04:10:44.400Z,0.65
2023-03-06T04:13:10.700Z,0.58
2023-03-06T04:15:37.076Z,0.37
2023-03-06T04:18:03.741Z,0.29
2023-03-06T04:20:30.386Z,0.18
2023-03-06T04:22:56.709Z,0.23
2023-03-06T04:25:23.019Z,0.26
2023-03-06T04:27:49.338Z,0.12
2023-03-06T04:30:15.771Z,0.06
2023-03-06T04:32:42.149Z,0.06
2023-03-06T04:35:08.818Z,-0.09
2023-03-06T04:37:35.152Z,-0.18
2023-03-06T04:40:01.474Z,-0.16
2023-03-06T04:42:27.891Z,-0.16
2023-03-06T04:44:54.272Z,-0.12
2023-03-06T04:47:20.597Z,-0.01
2023-03-06T04:49:47.232Z,0.23
2023-03-06T04:52:13.584Z,0.35
2023-03-06T04:54:39.879Z,0.58
2023-03-06T04:57:06.310Z,0.71
2023-03-06T04:59:32.625Z,0.72
2023-03-06T05:01:58.969Z,0.68
2023-03-06T05:04:25.334Z,0.77
2023-03-06T05:06:51.737Z,0.78
2023-03-06T05:09:18.040Z,0.75
2023-03-06T05:11:44.340Z,0.76
2023-03-06T05:14:10.644Z,0.78
2023-03-06T05:16:36.980Z,0.92
2023-03-06T05:19:03.430Z,0.96
2023-03-06T05:21:29.754Z,0.85
2023-03-06T05:23:56.074Z,0.87
2023-03-06T05:26:22.481Z,0.90
2023-03-06T05:28:48.866Z,0.96
2023-03-06T05:31:15.205Z,0.85
2023-03-06T05:33:41.498Z,0.90
2023-03-06T05:36:09.432Z,0.87
2023-03-06T05:38:35.859Z,0.90
2023-03-06T05:41:02.172Z,0.89
2023-03-06T05:43:28.468Z,0.87
2023-03-06T05:46:05.801Z,0.89
2023-03-06T05:48:32.894Z,1.01
2023-03-06T05:51:00.763Z,1.09
2023-03-06T05:53:27.571Z,1.12
2023-03-06T05:56:02.884Z,1.22
2023-03-06T05:58:30.304Z,1.26
2023-03-06T06:00:56.727Z,1.30
2023-03-06T06:03:23.627Z,1.22
2023-03-06T06:05:50.891Z,1.15
2023-03-06T06:08:17.708Z,1.12
2023-03-06T06:10:44.022Z,1.20
2023-03-06T06:13:10.309Z,1.23
2023-03-06T06:15:38.529Z,1.21
2023-03-06T06:18:04.942Z,1.24
2023-03-06T06:20:31.304Z,1.22
2023-03-06T06:22:57.833Z,1.28
2023-03-06T06:25:24.182Z,1.38
2023-03-06T06:27:50.469Z,1.44
2023-03-06T06:30:17.077Z,1.39
2023-03-06T06:32:43.413Z,1.43
2023-03-06T06:35:10.064Z,1.48
2023-03-06T06:37:36.390Z,1.46
2023-03-06T06:40:02.904Z,1.46
2023-03-06T06:42:35.182Z,1.63
2023-03-06T06:45:05.117Z,1.58
2023-03-06T06:47:31.861Z,1.43
2023-03-06T06:49:58.211Z,1.59
2023-03-06T06:52:25.193Z,1.79
2023-03-06T06:54:52.329Z,1.88
2023-03-06T06:57:18.695Z,1.84
2023-03-06T06:59:45.019Z,1.87
2023-03-06T07:02:13.018Z,2.00
2023-03-06T07:04:44.303Z,1.91
2023-03-06T07:07:15.724Z,2.00
2023-03-06T07:09:42.222Z,2.12
2023-03-06T07:12:08.799Z,2.12
2023-03-06T07:14:36.106Z,2.19
2023-03-06T07:17:02.505Z,2.16
2023-03-06T07:19:28.811Z,2.18
2023-03-06T07:21:55.149Z,2.24
2023-03-06T07:24:21.527Z,2.24
2023-03-06T07:26:48.186Z,2.26
2023-03-06T07:29:15.283Z,2.32
2023-03-06T07:31:41.816Z,2.23
2023-03-06T07:34:12.303Z,2.39
2023-03-06T07:36:38.902Z,2.48
2023-03-06T07:39:05.328Z,2.38
2023-03-06T07:41:31.677Z,2.46
2023-03-06T07:43:58.037Z,2.55
2023-03-06T07:46:24.349Z,2.48
2023-03-06T07:48:50.882Z,2.34
2023-03-06T07:51:19.469Z,2.30
2023-03-06T07:53:46.580Z,2.38
2023-03-06T07:56:13.740Z,2.45
2023-03-06T07:58:45.094Z,2.53
2023-03-06T08:01:20.369Z,2.56
2023-03-06T08:03:47.782Z,2.50
2023-03-06T08:06:17.288Z,2.43
2023-03-06T08:08:45.955Z,2.36
2023-03-06T08:11:14.263Z,2.42
2023-03-06T08:13:40.847Z,2.51
2023-03-06T08:16:07.840Z,2.40
2023-03-06T08:18:35.156Z,2.49
2023-03-06T08:21:06.265Z,2.58
2023-03-06T08:23:33.903Z,2.28
2023-03-06T08:26:03.180Z,2.13
2023-03-06T08:28:29.625Z,2.22
2023-03-06T08:30:56.580Z,2.22
2023-03-06T08:33:24.035Z,2.22
2023-03-06T08:35:50.806Z,2.10
2023-03-06T08:38:17.131Z,2.01
2023-03-06T08:40:43.443Z,2.01
2023-03-06T08:43:12.992Z,1.98
2023-03-06T08:45:40.365Z,1.98
2023-03-06T08:48:06.738Z,1.94
2023-03-06T08:50:33.057Z,1.97
2023-03-06T08:52:59.422Z,2.05
2023-03-06T08:55:25.827Z,2.01
2023-03-06T08:57:52.117Z,2.06
2023-03-06T09:00:18.903Z,2.03
2023-03-06T09:02:45.254Z,2.14
2023-03-06T09:05:11.676Z,2.17
2023-03-06T09:07:38.282Z,2.15
2023-03-06T09:10:04.904Z,2.25
2023-03-06T09:12:37.358Z,2.38
2023-03-06T09:15:11.286Z,2.39
2023-03-06T09:17:37.847Z,2.35
2023-03-06T09:20:06.385Z,2.43
2023-03-06T09:22:32.998Z,2.40
2023-03-06T09:25:00.233Z,2.52
2023-03-06T09:27:27.345Z,2.47
2023-03-06T09:29:54.848Z,2.61
2023-03-06T09:32:22.092Z,2.77
2023-03-06T09:34:48.745Z,2.89
2023-03-06T09:37:16.348Z,2.95
2023-03-06T09:39:43.686Z,3.07
2023-03-06T09:42:17.108Z,3.17
2023-03-06T09:44:50.254Z,2.99
2023-03-06T09:47:44.549Z,2.85
2023-03-06T09:50:38.937Z,2.76
2023-03-06T09:53:16.727Z,2.69
2023-03-06T09:55:48.449Z,2.41
2023-03-06T09:58:21.857Z,2.24
2023-03-06T10:01:16.114Z,2.19
2023-03-06T10:04:08.986Z,2.13
2023-03-06T10:06:48.946Z,2.03
2023-03-06T10:09:40.277Z,2.12
2023-03-06T10:12:20.832Z,2.22
2023-03-06T10:15:26.528Z,2.57
2023-03-06T10:17:53.406Z,2.69
2023-03-06T10:20:26.855Z,2.68
2023-03-06T10:23:00.836Z,3.01
2023-03-06T10:25:35.574Z,3.60
2023-03-06T10:28:29.207Z,4.01
2023-03-06T10:31:08.704Z,4.38
2023-03-06T10:33:58.146Z,3.85
2023-03-06T10:36:28.940Z,3.47
2023-03-06T10:38:57.707Z,3.24
2023-03-06T10:41:32.986Z,2.88
2023-03-06T10:43:59.250Z,2.96
2023-03-06T10:46:37.079Z,2.84
2023-03-06T10:49:36.117Z,2.79
2023-03-06T10:52:06.985Z,2.32
2023-03-06T10:54:36.956Z,2.25
2023-03-06T10:57:24.475Z,2.25
2023-03-06T10:59:56.831Z,2.45
2023-03-06T11:02:26.103Z,2.83
2023-03-06T11:04:54.290Z,3.17
2023-03-06T11:07:26.238Z,3.64
2023-03-06T11:09:58.571Z,4.26
2023-03-06T11:12:39.869Z,4.40
2023-03-06T11:15:15.235Z,4.51
2023-03-06T11:17:51.511Z,4.27
2023-03-06T11:20:21.334Z,3.51
2023-03-06T11:22:53.838Z,2.82
2023-03-06T11:25:24.260Z,2.66
2023-03-06T11:27:58.366Z,2.43
2023-03-06T11:30:32.525Z,2.47
2023-03-06T11:33:03.399Z,2.52
2023-03-06T11:35:44.585Z,2.57
2023-03-06T11:38:20.694Z,2.51
2023-03-06T11:40:53.719Z,2.56
2023-03-06T11:43:41.797Z,2.36
2023-03-06T11:46:20.651Z,2.45
2023-03-06T11:48:54.056Z,2.82
2023-03-06T11:51:35.157Z,3.02
2023-03-06T11:54:02.351Z,2.86
2023-03-06T11:56:35.584Z,2.80
2023-03-06T11:59:24.159Z,3.17
2023-03-06T12:01:57.868Z,3.47
2023-03-06T12:04:49.282Z,3.70
2023-03-06T12:07:20.828Z,3.47
2023-03-06T12:09:55.541Z,3.33
2023-03-06T12:12:30.626Z,3.51
2023-03-06T12:15:12.456Z,3.66
2023-03-06T12:18:01.921Z,3.51
2023-03-06T12:21:00.331Z,3.52
2023-03-06T12:23:35.620Z,3.51
2023-03-06T12:26:11.052Z,3.42
2023-03-06T12:29:00.608Z,3.75
2023-03-06T12:31:39.591Z,4.04
2023-03-06T12:34:20.929Z,4.44
2023-03-06T12:36:59.112Z,4.23
2023-03-06T12:39:47.862Z,4.10
2023-03-06T12:42:38.531Z,3.74
2023-03-06T12:45:29.332Z,3.61
2023-03-06T12:47:56.777Z,4.03
2023-03-06T12:50:29.311Z,4.20
2023-03-06T12:52:58.851Z,4.16
2023-03-06T12:55:26.173Z,4.32
2023-03-06T12:57:53.170Z,4.56
2023-03-06T13:00:34.398Z,4.59
2023-03-06T13:03:13.598Z,4.71
2023-03-06T13:06:00.734Z,4.83
2023-03-06T13:09:08.243Z,4.70
2023-03-06T13:11:56.088Z,4.69
2023-03-06T13:14:54.062Z,4.50
2023-03-06T13:17:29.745Z,4.51
2023-03-06T13:20:26.713Z,4.72
2023-03-06T13:22:53.039Z,4.52
2023-03-06T13:25:19.321Z,4.76
2023-03-06T13:27:51.976Z,4.79
2023-03-06T13:30:36.681Z,4.69
2023-03-06T13:33:28.841Z,4.44
2023-03-06T13:36:20.290Z,4.34
2023-03-06T13:38:52.787Z,4.39
2023-03-06T13:41:22.832Z,4.59
2023-03-06T13:43:51.260Z,4.70
2023-03-06T13:46:23.301Z,4.98
2023-03-06T13:49:13.112Z,5.02
2023-03-06T13:51:50.126Z,5.20
2023-03-06T13:54:27.725Z,5.04
2023-03-06T13:57:31.725Z,4.80
2023-03-06T14:00:19.559Z,4.40
2023-03-06T14:03:18.191Z,4.39
2023-03-06T14:05:47.287Z,4.52
2023-03-06T14:08:19.213Z,4.51
2023-03-06T14:10:48.901Z,4.85
2023-03-06T14:13:38.379Z,5.13
2023-03-06T14:16:17.010Z,5.20
2023-03-06T14:18:48.961Z,5.41
2023-03-06T14:21:25.893Z,5.50
2023-03-06T14:24:00.763Z,5.35
2023-03-06T14:26:31.995Z,5.20
2023-03-06T14:29:00.498Z,5.28
2023-03-06T14:31:34.014Z,5.35
2023-03-06T14:34:03.642Z,5.43
2023-03-06T14:36:42.004Z,5.44
2023-03-06T14:39:15.284Z,5.68
2023-03-06T14:41:41.629Z,5.84
2023-03-06T14:44:09.235Z,5.81
2023-03-06T14:46:35.952Z,5.89
2023-03-06T14:49:07.353Z,6.02
2023-03-06T14:51:40.507Z,5.86
2023-03-06T14:54:07.216Z,6.08
2023-03-06T14:56:39.190Z,5.88
2023-03-06T14:59:12.198Z,6.01
2023-03-06T15:01:41.473Z,5.84
2023-03-06T15:04:28.032Z,5.83
2023-03-06T15:06:56.233Z,5.92
2023-03-06T15:09:29.596Z,5.88
2023-03-06T15:11:59.146Z,5.96
2023-03-06T15:14:40.337Z,5.79
2023-03-06T15:17:18.657Z,5.81
2023-03-06T15:19:47.096Z,5.81
2023-03-06T15:22:24.716Z,5.97
2023-03-06T15:24:51.341Z,5.79
2023-03-06T15:27:26.674Z,5.59
2023-03-06T15:29:53.059Z,5.69
2023-03-06T15:32:34.726Z,5.69
2023-03-06T15:35:32.463Z,5.57
2023-03-06T15:37:59.489Z,5.61
2023-03-06T15:40:28.280Z,5.43
2023-03-06T15:42:55.047Z,5.41
2023-03-06T15:45:23.504Z,5.50
2023-03-06T15:47:53.373Z,5.60
2023-03-06T15:50:23.230Z,5.50
2023-03-06T15:52:50.180Z,5.36
2023-03-06T15:55:19.576Z,5.21
2023-03-06T15:57:50.579Z,5.28
2023-03-06T16:00:35.030Z,5.01
2023-03-06T16:03:02.096Z,4.93
2023-03-06T16:05:28.975Z,4.91
2023-03-06T16:07:55.843Z,4.76
2023-03-06T16:10:25.129Z,4.75
2023-03-06T16:12:55.366Z,4.82
2023-03-06T16:15:24.649Z,4.65
2023-03-06T16:17:51.045Z,4.56
2023-03-06T16:20:20.211Z,4.63
2023-03-06T16:22:48.218Z,4.41
2023-03-06T16:25:14.728Z,4.28
2023-03-06T16:27:50.580Z,4.33
2023-03-06T16:30:18.717Z,4.25
2023-03-06T16:32:45.625Z,4.01
2023-03-06T16:35:13.287Z,3.97
2023-03-06T16:37:40.941Z,3.86
2023-03-06T16:40:32.651Z,3.68
2023-03-06T16:42:59.277Z,3.53
2023-03-06T16:45:25.557Z,3.36
2023-03-06T16:47:51.943Z,3.30
2023-03-06T16:50:30.104Z,3.13
2023-03-06T16:52:57.506Z,3.13
2023-03-06T16:55:25.861Z,3.22
2023-03-06T16:57:53.178Z,3.13
2023-03-06T17:00:20.949Z,3.09
2023-03-06T17:02:52.113Z,3.01
2023-03-06T17:05:19.660Z,2.93
2023-03-06T17:07:46.012Z,2.95
2023-03-06T17:10:15.473Z,2.88
2023-03-06T17:12:42.777Z,2.85
2023-03-06T17:15:09.754Z,2.83
2023-03-06T17:17:36.152Z,2.82
2023-03-06T17:20:03.456Z,2.86
2023-03-06T17:22:33.247Z,2.74
2023-03-06T17:25:04.654Z,2.61
2023-03-06T17:27:30.990Z,2.68
2023-03-06T17:29:57.888Z,2.71
2023-03-06T17:32:24.271Z,2.62
2023-03-06T17:34:50.647Z,2.59
2023-03-06T17:37:17.021Z,2.51
2023-03-06T17:39:43.407Z,2.45
2023-03-06T17:42:09.715Z,2.46
2023-03-06T17:44:36.113Z,2.33
2023-03-06T17:47:02.916Z,2.26
2023-03-06T17:49:29.475Z,2.21
2023-03-06T17:51:56.507Z,2.15
2023-03-06T17:54:23.194Z,2.10
2023-03-06T17:56:49.512Z,2.05
2023-03-06T17:59:15.813Z,1.99
2023-03-06T18:01:42.223Z,1.96
2023-03-06T18:04:08.516Z,1.93
2023-03-06T18:06:34.838Z,1.89
2023-03-06T18:09:01.206Z,1.83
2023-03-06T18:11:27.774Z,1.89
2023-03-06T18:13:54.309Z,1.86
2023-03-06T18:16:23.090Z,1.83
2023-03-06T18:18:53.938Z,1.85
2023-03-06T18:21:21.002Z,1.84
2023-03-06T18:23:47.381Z,1.83
2023-03-06T18:26:19.519Z,1.79
2023-03-06T18:28:48.192Z,1.81
2023-03-06T18:31:26.194Z,1.80
2023-03-06T18:33:55.265Z,1.83
2023-03-06T18:36:23.732Z,1.83
2023-03-06T18:38:50.474Z,1.77
2023-03-06T18:41:18.472Z,1.84
2023-03-06T18:43:45.579Z,1.77
2023-03-06T18:46:12.256Z,1.71
2023-03-06T18:48:38.581Z,1.61
2023-03-06T18:51:10.216Z,1.60
2023-03-06T18:53:36.661Z,1.55
2023-03-06T18:56:03.442Z,1.59
2023-03-06T18:58:29.850Z,1.72
2023-03-06T19:00:58.930Z,1.67
2023-03-06T19:03:25.613Z,1.67
2023-03-06T19:05:52.018Z,1.69
2023-03-06T19:08:18.695Z,1.64
2023-03-06T19:10:46.033Z,1.67
2023-03-06T19:13:13.202Z,1.67
2023-03-06T19:15:44.756Z,1.67
2023-03-06T19:18:12.404Z,1.67
2023-03-06T19:20:38.724Z,1.71
2023-03-06T19:23:05.156Z,1.72
2023-03-06T19:25:31.476Z,1.77
2023-03-06T19:27:57.799Z,1.88
2023-03-06T19:30:24.272Z,2.00
2023-03-06T19:32:50.943Z,1.97
2023-03-06T19:35:17.420Z,2.02
2023-03-06T19:37:43.721Z,1.96
2023-03-06T19:40:10.718Z,2.11
2023-03-06T19:42:37.018Z,2.08
2023-03-06T19:45:04.238Z,2.18
2023-03-06T19:47:30.543Z,2.15
2023-03-06T19:49:57.079Z,2.22
2023-03-06T19:52:23.525Z,2.24
2023-03-06T19:54:50.813Z,2.37
2023-03-06T19:57:17.397Z,2.33
2023-03-06T19:59:43.745Z,2.25
2023-03-06T20:02:11.058Z,2.22
2023-03-06T20:04:37.453Z,2.10
2023-03-06T20:07:04.303Z,2.16
2023-03-06T20:09:32.213Z,2.18
2023-03-06T20:12:01.666Z,2.12
2023-03-06T20:14:28.192Z,2.06
2023-03-06T20:16:54.489Z,2.08
2023-03-06T20:19:20.796Z,2.15
2023-03-06T20:21:47.389Z,2.10
2023-03-06T20:24:15.022Z,2.16
2023-03-06T20:26:41.324Z,2.09
2023-03-06T20:29:07.651Z,2.15
2023-03-06T20:31:33.993Z,2.22
2023-03-06T20:34:00.337Z,2.16
2023-03-06T20:36:29.372Z,2.17
2023-03-06T20:38:58.479Z,2.14
2023-03-06T20:41:27.355Z,2.24
2023-03-06T20:43:53.820Z,2.17
2023-03-06T20:46:21.969Z,2.14
2023-03-06T20:48:50.054Z,2.21
2023-03-06T20:51:19.053Z,2.18
2023-03-06T20:53:50.261Z,2.17
2023-03-06T20:56:20.184Z,2.14
2023-03-06T20:58:46.933Z,2.33
2023-03-06T21:01:22.045Z,2.22
2023-03-06T21:03:49.036Z,2.29
2023-03-06T21:06:15.631Z,2.15
2023-03-06T21:08:42.010Z,2.17
2023-03-06T21:11:08.804Z,2.03
2023-03-06T21:13:35.430Z,2.04
2023-03-06T21:16:10.782Z,2.04
2023-03-06T21:18:37.255Z,2.09
2023-03-06T21:21:11.841Z,2.09
2023-03-06T21:23:38.532Z,2.08
2023-03-06T21:26:05.555Z,2.03
2023-03-06T21:28:32.157Z,2.05
2023-03-06T21:31:01.831Z,2.02
2023-03-06T21:33:28.750Z,1.98
2023-03-06T21:35:55.091Z,2.04
2023-03-06T21:38:21.437Z,1.97
2023-03-06T21:40:47.787Z,1.94
2023-03-06T21:43:14.103Z,2.02
2023-03-06T21:45:45.532Z,2.00
2023-03-06T21:48:12.244Z,2.08
2023-03-06T21:50:38.593Z,2.03
2023-03-06T21:53:04.974Z,2.01
2023-03-06T21:55:31.324Z,2.03
2023-03-06T21:57:57.635Z,1.89
2023-03-06T22:00:24.052Z,1.97
2023-03-06T22:02:50.620Z,1.97
2023-03-06T22:05:16.949Z,2.02
2023-03-06T22:07:43.465Z,1.96
2023-03-06T22:10:12.180Z,1.89
2023-03-06T22:12:39.408Z,1.83
2023-03-06T22:15:06.674Z,1.89
2023-03-06T22:17:32.974Z,1.87
2023-03-06T22:19:59.305Z,1.87
2023-03-06T22:22:25.795Z,2.02
2023-03-06T22:24:52.124Z,1.97
2023-03-06T22:27:18.455Z,1.99
2023-03-06T22:29:45.844Z,1.96
2023-03-06T22:32:12.396Z,2.00
2023-03-06T22:34:38.848Z,1.88
2023-03-06T22:37:05.174Z,2.03
2023-03-06T22:39:31.512Z,1.98
2023-03-06T22:41:57.834Z,2.06
2023-03-06T22:44:24.192Z,2.04
2023-03-06T22:46:50.485Z,2.08
2023-03-06T22:49:17.177Z,2.08
2023-03-06T22:51:43.692Z,2.09
2023-03-06T22:54:11.023Z,2.09
2023-03-06T22:56:37.401Z,1.99
2023-03-06T22:59:03.906Z,2.06
2023-03-06T23:01:32.868Z,1.98
2023-03-06T23:04:04.054Z,1.98
2023-03-06T23:06:33.286Z,2.05
2023-03-06T23:09:05.237Z,2.01
2023-03-06T23:11:32.520Z,2.04
2023-03-06T23:13:59.922Z,2.03
2023-03-06T23:16:26.340Z,2.04
2023-03-06T23:18:53.629Z,2.03
2023-03-06T23:21:21.951Z,2.08
2023-03-06T23:23:50.308Z,2.10
2023-03-06T23:26:18.223Z,2.07
2023-03-06T23:28:44.902Z,2.04
2023-03-06T23:31:16.996Z,2.07
2023-03-06T23:33:43.377Z,2.04
2023-03-06T23:36:12.745Z,2.20
2023-03-06T23:38:39.579Z,2.02
2023-03-06T23:41:09.041Z,2.01
2023-03-06T23:43:35.371Z,1.98
2023-03-06T23:46:02.093Z,1.96
2023-03-06T23:48:29.084Z,1.84
2023-03-06T23:50:55.894Z,1.82
2023-03-06T23:53:22.696Z,1.79
2023-03-06T23:55:50.159Z,1.73
2023-03-06T23:58:17.980Z,1.87
